This is the latest recevied weather packets stored in our database for station/object OE9XVI-6. If no packets are shown the sender has not sent any weather packets the latest 1 day(s).
| Time | Temp. | Humidity | Pressure | Rain* | Wind** | Luminosity | Snow |
|---|---|---|---|---|---|---|---|
| 1778006213 | 10.56° C | 72% | 1010 hPa | 0 mm | 2.68 m/s, 288° | - | - |
| 1778005613 | 10.56° C | 77% | 1010.1 hPa | 0 mm | 2.68 m/s, 139° | - | - |
| 1778005013 | 11.11° C | 82% | 1010.4 hPa | 0 mm | 1.79 m/s, 122° | - | - |
| 1778004413 | 11.11° C | 85% | 1010.2 hPa | 0 mm | 2.68 m/s, 317° | - | - |
| 1778003813 | 11.11° C | 85% | 1010 hPa | 0 mm | 3.13 m/s, 306° | - | - |
| 1778003213 | 11.67° C | 82% | 1009.8 hPa | 0 mm | 1.34 m/s, 337° | - | - |
| 1778002613 | 12.22° C | 81% | 1009.8 hPa | 0 mm | 2.24 m/s, 347° | - | - |
| 1778002013 | 13.33° C | 75% | 1009.7 hPa | 0 mm | 1.79 m/s, 337° | - | - |
| 1778001413 | 16.11° C | 63% | 1009.4 hPa | 0 mm | 0 m/s | - | - |
| 1778000813 | 15.56° C | 65% | 1009.4 hPa | 0 mm | 0.89 m/s, 129° | - | - |
| 1778000213 | 15° C | 68% | 1009.1 hPa | 0 mm | 0 m/s | - | - |
| 1777999613 | 15° C | 67% | 1009.2 hPa | 0 mm | 0.89 m/s, 313° | - | - |
| 1777999013 | 16.11° C | 64% | 1009 hPa | 0 mm | 1.79 m/s, 338° | - | - |
| 1777998413 | 17.22° C | 56% | 1009.1 hPa | 0 mm | 0.89 m/s, 323° | - | - |
| 1777997813 | 19.44° C | 54% | 1009.1 hPa | 0 mm | 0.45 m/s, 300° | - | - |
| 1777997213 | 18.33° C | 58% | 1009 hPa | 0 mm | 1.79 m/s, 324° | - | - |
| 1777996613 | 18.89° C | 55% | 1009 hPa | 0 mm | 1.34 m/s, 324° | - | - |
| 1777996013 | 23.33° C | 42% | 1008.8 hPa | 0 mm | 2.68 m/s, 329° | - | - |
| 1777995413 | 31.67° C | 30% | 1008.7 hPa | 0 mm | 0.45 m/s, 302° | - | - |
| 1777994813 | 31.11° C | 33% | 1008.8 hPa | 0 mm | 0.89 m/s, 338° | - | - |
| 1777994213 | 30° C | 30% | 1008.8 hPa | 0 mm | 0.45 m/s, 348° | - | - |
| 1777993613 | 34.44° C | 27% | 1008.8 hPa | 0 mm | 0.45 m/s, 70° | - | - |
| 1777993013 | 33.89° C | 31% | 1008.6 hPa | 0 mm | 0.45 m/s, 130° | - | - |
| 1777992413 | 28.89° C | 39% | 1008.7 hPa | 0 mm | 0.45 m/s, 313° | - | - |
| 1777991813 | 26.11° C | 37% | 1008.6 hPa | 0 mm | 1.79 m/s, 281° | - | - |
* Rain latest hour (hover to see other rain measurements)
** Current wind speed in m/s (hover to see current wind gust speed)